• Join FlightAware (Why Join?)
  • Login
  • US Flag 
05:13AM EDT


 

Airport Tracker/Info


-or-


 

Live Flight TrackerFlight Track Log ✈ TAM3216 ✈ 06-Sep-2013 ✈ SBSV / SSA - SBFZ / FOR

Flight Track Log - Related Links

Times and Time Zones

All times are in EDT time to prevent confusion due to time zone crossing. See the TAM3216 flight status page for this flight to view local times or setup timezone preferences in your user account.

Time Position Orientation Groundspeed Altitude Reporting Facility
EDT Latitude Longitude Course Direction KTS MPH feet Rate Location/Type
12:07PM -12.9140 -38.3330 168° South  Level FlightAware
12:09PM -12.9140 -38.3330 180° South  Level FlightAware
12:12PM -12.6995 -38.3378 359° North  Level Estimated
12:13PM -12.5945 -38.3401 359° North  Level Estimated
12:13PM -12.9140 -38.3330 359° North  Level FlightAware
12:15PM -12.9140 -38.3330 180° South  Level FlightAware
12:19PM -12.7240 -38.3372 359° North  Level Estimated
12:20PM -12.6190 -38.3396 359° North  Level Estimated
12:21PM -12.5140 -38.3419 359° North  Level Estimated
12:21PM -12.9140 -38.3330 359° North  Level FlightAware
12:22PM -12.9140 -38.3330 180° South  Level FlightAware
12:26PM -12.9140 -38.3330 180° South  Level FlightAware
12:27PM -12.9130 -38.3330 360° North  Level FlightAware
12:30PM -12.6785 -38.3383 359° North  Level Estimated
12:31PM -12.5735 -38.3406 359° North  Level Estimated
12:32PM -12.4685 -38.3430 359° North  Level Estimated
12:32PM -12.9130 -38.3330 359° North  Level FlightAware
12:37PM -12.7048 -38.3377 359° North  Level Estimated
12:38PM -12.5997 -38.3400 359° North  Level Estimated
12:39PM -12.4948 -38.3424 359° North  Level Estimated
12:41PM -12.7317 -38.3380 359° North  Level Estimated
12:42PM -12.6267 -38.3404 359° North  Level Estimated
12:43PM -12.5218 -38.3427 359° North  Level Estimated
12:44PM -12.4167 -38.3450 359° North  Level Estimated
12:45PM -12.3118 -38.3474 359° North  Level Estimated
12:46PM -12.2067 -38.3497 359° North  Level Estimated
12:47PM -12.9100 -38.3280 80° East 115 132  Level FlightAware
12:47PM -12.9070 -38.3150 77° East 92 106 1,200 Level FlightAware
12:48PM -12.9030 -38.2970 77° East 169 194 900 1,860 Climbing FlightAware
12:48PM -12.8990 -38.2760 79° East 195 224 1,500 1,320 Climbing FlightAware
12:49PM -12.8940 -38.2570 75° East 226 260 1,900 1,500 Climbing FlightAware
12:49PM -12.8910 -38.2530 52° Northeast 229 264 2,100 3,480 Climbing FlightAware
12:49PM -12.8860 -38.2460 54° Northeast 231 266 2,600 3,360 Climbing FlightAware
12:49PM -12.8790 -38.2400 40° Northeast 234 269 3,000 3,360 Climbing FlightAware
12:49PM -12.8700 -38.2360 23° Northeast 239 275 3,500 3,000 Climbing FlightAware
12:49PM -12.8660 -38.2350 14° North 243 280 3,600 1,980 Climbing FlightAware
12:49PM -12.8610 -38.2350 360° North 244 281 3,800 2,760 Climbing FlightAware
12:50PM -12.8350 -38.2510 329° Northwest 253 291 5,100 2,700 Climbing FlightAware
12:50PM -12.8320 -38.2550 308° West 253 291 5,200 2,460 Climbing FlightAware
12:50PM -12.8300 -38.2640 283° West 252 290 5,600 3,000 Climbing FlightAware
12:50PM -12.8270 -38.2840 279° West 250 288 6,500 2,700 Climbing FlightAware
12:51PM -12.8200 -38.3150 283° West 255 293 7,600 2,580 Climbing FlightAware
12:51PM -12.8150 -38.3400 282° West 258 297 8,500 2,520 Climbing FlightAware
12:51PM -12.8100 -38.3630 283° West 261 300 9,300 2,340 Climbing FlightAware
12:52PM -12.8000 -38.4080 283° West 270 311 10,700 2,280 Climbing FlightAware
12:52PM -12.7900 -38.4540 283° West 275 316 12,100 2,340 Climbing FlightAware
12:53PM -12.7810 -38.4940 283° West 276 318 13,400 2,340 Climbing FlightAware
12:54PM -12.7710 -38.5410 282° West 274 315 14,800 2,100 Climbing FlightAware
12:54PM -12.7620 -38.5840 282° West 280 322 15,900 1,860 Climbing FlightAware
12:55PM -12.7470 -38.6320 288° West 285 328 17,100 1,680 Climbing FlightAware
12:55PM -12.7360 -38.6450 311° West 291 335 17,300 840 Climbing FlightAware
12:56PM -12.6930 -38.6720 329° Northwest 316 364 17,800 780 Climbing FlightAware
12:56PM -12.6500 -38.6990 329° Northwest 343 395 18,200 720 Climbing FlightAware
12:56PM -12.6260 -38.7050 346° North 357 411 18,400 540 Climbing FlightAware
12:57PM -12.5690 -38.7080 357° North 382 440 18,700 660 Climbing FlightAware
12:58PM -12.5010 -38.7100 358° North 404 465 19,200 1,380 Climbing FlightAware
12:58PM -12.4390 -38.7130 357° North 402 463 20,300 2,100 Climbing FlightAware
12:59PM -12.3760 -38.7170 356° North 395 455 21,600 1,680 Climbing FlightAware
12:59PM -12.3020 -38.7210 357° North 404 465 22,400 1,080 Climbing FlightAware
01:00PM -12.2430 -38.7240 357° North 413 475 22,900 1,140 Climbing FlightAware
01:00PM -12.1710 -38.7280 357° North 418 481 23,700 1,200 Climbing FlightAware
01:01PM -12.1020 -38.7320 357° North 423 487 24,400 1,080 Climbing FlightAware
01:02PM -12.0340 -38.7360 357° North 429 494 25,000 1,620 Climbing FlightAware
01:02PM -11.9680 -38.7390 357° North 417 480 26,300 3,120 Climbing FlightAware
01:03PM -11.8980 -38.7430 357° North 370 426 28,800 2,820 Climbing FlightAware
01:03PM -11.8410 -38.7460 357° North 363 418 29,700 1,080 Climbing FlightAware
01:04PM -11.7860 -38.7490 357° North 375 432 30,000 420 Climbing FlightAware
01:05PM -11.7210 -38.7530 357° North 390 449 30,200 360 Climbing FlightAware
01:05PM -11.6520 -38.7570 357° North 401 461 30,500 600 Climbing FlightAware
01:06PM -11.5910 -38.7600 357° North 409 471 30,900 660 Climbing FlightAware
01:06PM -11.5190 -38.7640 357° North 419 482 31,300 720 Climbing FlightAware
01:07PM -11.4510 -38.7680 357° North 421 484 31,800 900 Climbing FlightAware
01:07PM -11.3900 -38.7710 357° North 424 488 32,300 900 Climbing FlightAware
01:08PM -11.3350 -38.7740 357° North 427 491 32,700 1,020 Climbing FlightAware
01:08PM -11.2640 -38.7780 357° North 424 488 33,400 780 Climbing FlightAware
01:09PM -11.1920 -38.7820 357° North 431 496 33,700 420 Climbing FlightAware
01:10PM -11.1230 -38.7860 357° North 439 505 33,900 360 Climbing FlightAware
01:10PM -11.0570 -38.7890 357° North 447 514 34,100 300 Climbing FlightAware
01:11PM -11.0140 -38.7910 357° North 451 519 34,200 660 Climbing FlightAware
01:11PM -10.9070 -38.7970 357° North 454 522 34,900 480 Climbing FlightAware
01:12PM -10.8260 -38.8020 357° North 462 532 35,000 60 Climbing FlightAware
01:13PM -10.7590 -38.8050 357° North 471 542 35,000  Level FlightAware
01:13PM -10.6900 -38.8090 357° North 476 548 35,000  Level FlightAware
01:14PM -10.6200 -38.8130 357° North 475 547 35,000  Level FlightAware
01:14PM -10.5410 -38.8170 357° North 473 544 35,000  Level FlightAware
01:15PM -10.4620 -38.8210 357° North 473 544 35,000  Level FlightAware
01:15PM -10.3840 -38.8260 356° North 473 544 35,000  Level FlightAware
01:16PM -10.3090 -38.8300 357° North 473 544 35,000  Level FlightAware
01:17PM -10.2300 -38.8340 357° North 473 544 35,000  Level FlightAware
01:17PM -10.1490 -38.8380 357° North 473 544 35,000  Level FlightAware
01:18PM -10.0780 -38.8420 357° North 473 544 35,000  Level FlightAware
01:18PM -10.0000 -38.8460 357° North 473 544 35,000  Level FlightAware
01:19PM -9.9200 -38.8510 356° North 474 545 35,000  Level FlightAware
01:19PM -9.8470 -38.8550 357° North 474 545 35,000  Level FlightAware
01:20PM -9.7680 -38.8590 357° North 474 545 35,000  Level FlightAware
01:21PM -9.6930 -38.8630 357° North 473 544 35,000  Level FlightAware
01:21PM -9.6190 -38.8670 357° North 473 544 35,000  Level FlightAware
01:22PM -9.5390 -38.8710 357° North 474 545 35,000  Level FlightAware
01:22PM -9.4670 -38.8750 357° North 474 545 35,000  Level FlightAware
01:23PM -9.3850 -38.8800 357° North 474 545 35,000  Level FlightAware
01:24PM -9.3060 -38.8840 357° North 473 544 35,000  Level FlightAware
01:24PM -9.2350 -38.8880 357° North 473 544 35,000  Level FlightAware
01:25PM -9.1560 -38.8920 357° North 472 543 35,000  Level FlightAware
01:25PM -9.0830 -38.8960 357° North 472 543 35,000  Level FlightAware
01:26PM -8.9990 -38.9000 357° North 472 543 35,000  Level FlightAware
01:26PM -8.9200 -38.9050 356° North 471 542 35,000  Level FlightAware
01:27PM -8.8510 -38.9080 358° North 469 540 35,000  Level FlightAware
01:28PM -8.7720 -38.9130 356° North 468 539 35,000  Level FlightAware
01:28PM -8.6980 -38.9160 358° North 468 539 35,000  Level FlightAware
01:29PM -8.6240 -38.9200 357° North 468 539 35,000  Level FlightAware
01:29PM -8.5440 -38.9250 356° North 468 539 35,000  Level FlightAware
01:30PM -8.4770 -38.9290 357° North 469 540 35,000  Level FlightAware
01:31PM -8.3950 -38.9330 357° North 469 540 35,000  Level FlightAware
01:31PM -8.3170 -38.9370 357° North 469 540 35,000  Level FlightAware
01:32PM -8.2620 -38.9400 357° North 470 541 35,000  Level FlightAware
01:32PM -8.1480 -38.9460 357° North 472 543 35,000  Level FlightAware
01:33PM -8.0710 -38.9500 357° North 473 544 35,000  Level FlightAware
01:34PM -7.9890 -38.9540 357° North 473 544 35,000  Level FlightAware
01:34PM -7.8910 -38.9600 357° North 473 544 35,000  Level FlightAware
01:35PM -7.7980 -38.9640 358° North 474 545 35,000  Level FlightAware
01:36PM -7.7340 -38.9680 356° North 473 544 35,000  Level FlightAware
01:36PM -7.6600 -38.9730 356° North 473 544 35,000  Level FlightAware
01:37PM -7.5930 -38.9780 356° North 473 544 35,000  Level FlightAware
01:37PM -7.5260 -38.9830 356° North 473 544 35,000  Level FlightAware
01:38PM -7.4070 -38.9850 359° North 471 542 35,000  Level FlightAware
01:39PM -7.3290 -38.9900 356° North 470 541 35,000  Level FlightAware
01:39PM -7.2490 -38.9940 357° North 473 544 35,000  Level FlightAware
01:40PM -7.1630 -38.9980 357° North 473 544 35,000  Level FlightAware
01:41PM -7.0500 -39.0040 357° North 473 544 35,000  Level FlightAware
01:41PM -6.9820 -39.0080 357° North 474 545 35,000  Level FlightAware
01:42PM -6.8830 -39.0130 357° North 474 545 35,000  Level FlightAware
01:43PM -6.8080 -39.0170 357° North 473 544 35,000  Level FlightAware
01:43PM -6.7320 -39.0210 357° North 473 544 35,000  Level FlightAware
01:44PM -6.6500 -39.0260 357° North 472 543 35,000  Level FlightAware
01:44PM -6.5810 -39.0290 358° North 472 543 35,000  Level FlightAware
01:45PM -6.4830 -39.0340 357° North 472 543 35,000  Level FlightAware
01:46PM -6.4130 -39.0380 357° North 473 544 35,000  Level FlightAware
01:46PM -6.3330 -39.0420 357° North 474 545 35,000  Level FlightAware
01:47PM -6.2630 -39.0460 357° North 474 545 35,000  Level FlightAware
01:47PM -6.1790 -39.0510 357° North 476 548 35,000  Level FlightAware
01:48PM -6.0980 -39.0550 357° North 476 548 35,000  Level FlightAware
01:49PM -6.0000 -39.0610 357° North 476 548 35,000  Level FlightAware
01:49PM -5.9180 -39.0640 358° North 473 544 35,000  Level FlightAware
01:50PM -5.8430 -39.0680 357° North 470 541 35,000  Level FlightAware
01:50PM -5.7650 -39.0720 357° North 467 537 35,000  Level FlightAware
01:51PM -5.6870 -39.0770 356° North 466 536 35,000  Level FlightAware
01:52PM -5.6050 -39.0810 357° North 466 536 35,000  Level FlightAware
01:52PM -5.5310 -39.0850 357° North 468 539 35,000 -120 Level FlightAware
01:53PM -5.4580 -39.0890 357° North 469 540 34,900 -540 Descending FlightAware
01:53PM -5.3830 -39.0930 357° North 469 540 34,400 -960 Descending FlightAware
01:54PM -5.3060 -39.0970 357° North 471 542 33,800 -1,260 Descending FlightAware
01:55PM -5.2000 -39.0930 North 475 547 32,700 -2,280 Descending FlightAware
01:55PM -5.1300 -39.0780 12° North 479 551 30,800 -4,200 Descending FlightAware
01:56PM -5.0480 -39.0600 12° North 498 573 27,800 -4,380 Descending FlightAware
01:57PM -4.9670 -39.0430 12° North 492 566 25,600 -3,600 Descending FlightAware
01:57PM -4.8900 -39.0260 12° North 476 548 23,600 -3,180 Descending FlightAware
01:58PM -4.8170 -39.0110 12° North 458 527 21,900 -3,000 Descending FlightAware
01:58PM -4.7450 -38.9960 12° North 451 519 20,100 -3,300 Descending FlightAware
01:59PM -4.6790 -38.9810 13° North 453 521 18,200 -2,820 Descending FlightAware
01:59PM -4.6020 -38.9650 12° North 434 499 16,800 -2,520 Descending FlightAware
02:00PM -4.5360 -38.9510 12° North 426 490 15,200 -2,580 Descending FlightAware
02:01PM -4.4670 -38.9360 12° North 410 472 13,800 -2,640 Descending FlightAware
02:01PM -4.3990 -38.9210 12° North 408 470 12,000 -2,040 Descending FlightAware
02:02PM -4.3420 -38.9090 12° North 379 436 11,500 -900 Descending FlightAware
02:02PM -4.2830 -38.8970 11° North 349 402 11,000 -840 Descending FlightAware
02:03PM -4.2280 -38.8850 12° North 322 371 10,500 -960 Descending FlightAware
02:04PM -4.1760 -38.8740 12° North 302 348 9,900 -1,200 Descending FlightAware
02:04PM -4.1490 -38.8680 12° North 300 345 9,400 -1,500 Descending FlightAware
02:04PM -4.1320 -38.8640 13° North 299 344 9,100 -1,560 Descending FlightAware
02:05PM -4.0990 -38.8570 12° North 297 342 8,500 -1,380 Descending FlightAware
02:05PM -4.0730 -38.8520 11° North 294 338 8,100 -1,380 Descending FlightAware
02:05PM -4.0460 -38.8460 12° North 291 335 7,600 -1,500 Descending FlightAware
02:06PM -4.0210 -38.8410 11° North 287 330 7,100 -1,740 Descending FlightAware
02:06PM -3.9920 -38.8340 14° North 289 333 6,400 -2,100 Descending FlightAware
02:06PM -3.9630 -38.8280 12° North 298 343 5,600 -1,740 Descending FlightAware
02:07PM -3.9360 -38.8220 13° North 294 338 5,200 -840 Descending FlightAware
02:07PM -3.9130 -38.8170 12° North 294 338 5,100 -180 Descending FlightAware
02:07PM -3.8870 -38.8120 11° North 295 339 5,100  Level FlightAware
02:08PM -3.8580 -38.8060 12° North 294 338 5,100  Level FlightAware
02:08PM -3.8340 -38.8010 12° North 279 321 5,100  Level FlightAware
02:08PM -3.8080 -38.7950 13° North 253 291 5,100  Level FlightAware
02:08PM -3.8000 -38.7920 21° North 242 278 5,100 -420 Level FlightAware
02:08PM -3.7920 -38.7870 32° Northeast 234 269 5,000 -480 Descending FlightAware
02:09PM -3.7750 -38.7750 35° Northeast 218 251 4,900 -540 Descending FlightAware
02:09PM -3.7630 -38.7660 37° Northeast 212 244 4,700 -900 Descending FlightAware
02:09PM -3.7480 -38.7560 34° Northeast 207 238 4,400 -1,200 Descending FlightAware
02:10PM -3.7310 -38.7430 37° Northeast 206 237 3,900 -1,200 Descending FlightAware
02:10PM -3.7290 -38.7410 45° Northeast 202 232 3,900 -480 Level FlightAware
02:10PM -3.7260 -38.7330 69° East 189 217 3,800 -900 Descending FlightAware
02:10PM -3.7260 -38.7280 90° East 187 215 3,700 -1,020 Descending FlightAware
02:10PM -3.7290 -38.7130 101° East 176 203 3,400 -960 Descending FlightAware
02:10PM -3.7300 -38.7070 99° East 174 200 3,300 -900 Descending FlightAware
02:11PM -3.7370 -38.6810 105° East 164 189 2,800 -900 Descending FlightAware
02:11PM -3.7400 -38.6670 102° East 156 180 2,500 -720 Descending FlightAware
02:12PM -3.7440 -38.6510 104° East 148 170 2,300 -720 Descending FlightAware
02:12PM -3.7480 -38.6370 106° East 133 153 2,000 -780 Descending FlightAware
02:12PM -3.7510 -38.6270 107° East 130 150 1,800 -720 Descending FlightAware
02:13PM -3.7550 -38.6130 106° East 129 148 1,500 -720 Descending FlightAware
02:13PM -3.7580 -38.6020 105° East 128 147 1,300 -600 Descending FlightAware
02:14PM -3.7610 -38.5900 104° East 132 152 1,100 -780 Descending FlightAware
02:14PM -3.7640 -38.5780 104° East 136 157 800 -840 Descending FlightAware
02:14PM -3.7680 -38.5630 105° East 139 160 500 -720 Descending FlightAware
02:15PM -3.7720 -38.5500 107° East 138 159 300 -720 Descending FlightAware
02:15PM -3.7740 -38.5410 103° East 133 153 100 -780 Descending FlightAware
02:15PM -3.7760 -38.5320 103° East 82 94 -360 Descending FlightAware